sensor_id;sensor_type;location;lat;lon;timestamp;pressure;altitude;pressure_sealevel;temperature;humidity
50484;BME280;36409;52.168;20.878;2023-05-11T01:01:21;101043.41;;;7.04;42.92
50484;BME280;36409;52.168;20.878;2023-05-11T01:03:51;101036.47;;;7.03;43.23
50484;BME280;36409;52.168;20.878;2023-05-11T01:06:26;101032.98;;;7.01;42.68
50484;BME280;36409;52.168;20.878;2023-05-11T01:09:01;101032.12;;;7.00;43.33
50484;BME280;36409;52.168;20.878;2023-05-11T01:11:38;101030.37;;;6.98;42.59
50484;BME280;36409;52.168;20.878;2023-05-11T01:14:13;101036.41;;;6.97;43.46
50484;BME280;36409;52.168;20.878;2023-05-11T01:16:46;101034.67;;;6.95;43.48
50484;BME280;36409;52.168;20.878;2023-05-11T01:19:27;101034.67;;;6.95;42.89
50484;BME280;36409;52.168;20.878;2023-05-11T01:22:09;101031.17;;;6.93;43.57
50484;BME280;36409;52.168;20.878;2023-05-11T01:24:57;101037.22;;;6.92;43.19
50484;BME280;36409;52.168;20.878;2023-05-11T01:28:06;101038.95;;;6.92;43.52
50484;BME280;36409;52.168;20.878;2023-05-11T01:30:43;101032.02;;;6.91;43.58
50484;BME280;36409;52.168;20.878;2023-05-11T01:33:18;101033.73;;;6.90;43.23
50484;BME280;36409;52.168;20.878;2023-05-11T01:35:52;101030.28;;;6.90;43.80
50484;BME280;36409;52.168;20.878;2023-05-11T01:38:24;101032.88;;;6.90;43.06
50484;BME280;36409;52.168;20.878;2023-05-11T01:40:57;101030.23;;;6.88;43.43
50484;BME280;36409;52.168;20.878;2023-05-11T01:43:28;101022.44;;;6.85;43.53
50484;BME280;36409;52.168;20.878;2023-05-11T01:46:07;101022.40;;;6.82;43.15
50484;BME280;36409;52.168;20.878;2023-05-11T01:48:40;101027.58;;;6.80;43.50
50484;BME280;36409;52.168;20.878;2023-05-11T01:51:10;101027.55;;;6.79;43.91
50484;BME280;36409;52.168;20.878;2023-05-11T01:53:42;101030.98;;;6.76;43.41
50484;BME280;36409;52.168;20.878;2023-05-11T01:56:12;101025.74;;;6.73;43.44
50484;BME280;36409;52.168;20.878;2023-05-11T01:58:43;101041.30;;;6.72;43.41
50484;BME280;36409;52.168;20.878;2023-05-11T02:01:14;101031.77;;;6.69;43.83
50484;BME280;36409;52.168;20.878;2023-05-11T02:03:46;101033.42;;;6.65;43.50
50484;BME280;36409;52.168;20.878;2023-05-11T02:06:18;101036.01;;;6.62;43.55
50484;BME280;36409;52.168;20.878;2023-05-11T02:08:49;101027.33;;;6.60;43.64
50484;BME280;36409;52.168;20.878;2023-05-11T02:11:22;101034.20;;;6.57;43.51
50484;BME280;36409;52.168;20.878;2023-05-11T02:13:57;101026.38;;;6.55;44.40
50484;BME280;36409;52.168;20.878;2023-05-11T02:16:31;101029.83;;;6.54;43.99
50484;BME280;36409;52.168;20.878;2023-05-11T02:19:01;101035.00;;;6.51;44.19
50484;BME280;36409;52.168;20.878;2023-05-11T02:21:31;101034.95;;;6.49;43.65
50484;BME280;36409;52.168;20.878;2023-05-11T02:24:06;101032.36;;;6.48;43.91
50484;BME280;36409;52.168;20.878;2023-05-11T02:26:37;101029.75;;;6.46;44.04
50484;BME280;36409;52.168;20.878;2023-05-11T02:29:06;101033.16;;;6.44;43.90
50484;BME280;36409;52.168;20.878;2023-05-11T02:31:46;101034.00;;;6.43;44.23
50484;BME280;36409;52.168;20.878;2023-05-11T02:34:20;101030.54;;;6.41;43.97
50484;BME280;36409;52.168;20.878;2023-05-11T02:36:54;101026.16;;;6.38;43.87
50484;BME280;36409;52.168;20.878;2023-05-11T02:39:31;101035.62;;;6.33;44.26
50484;BME280;36409;52.168;20.878;2023-05-11T02:42:08;101039.00;;;6.29;44.83
50484;BME280;36409;52.168;20.878;2023-05-11T02:44:39;101039.00;;;6.27;44.74
50484;BME280;36409;52.168;20.878;2023-05-11T02:47:12;101038.94;;;6.24;44.30
50484;BME280;36409;52.168;20.878;2023-05-11T02:49:44;101033.75;;;6.23;44.32
50484;BME280;36409;52.168;20.878;2023-05-11T02:52:16;101034.55;;;6.20;44.56
50484;BME280;36409;52.168;20.878;2023-05-11T02:54:50;101037.14;;;6.20;44.81
50484;BME280;36409;52.168;20.878;2023-05-11T02:57:21;101037.13;;;6.18;44.21
50484;BME280;36409;52.168;20.878;2023-05-11T02:59:51;101039.72;;;6.18;44.35
50484;BME280;36409;52.168;20.878;2023-05-11T03:02:21;101041.42;;;6.16;44.49
50484;BME280;36409;52.168;20.878;2023-05-11T03:04:51;101044.01;;;6.16;45.08
50484;BME280;36409;52.168;20.878;2023-05-11T03:07:20;101040.56;;;6.16;44.94
50484;BME280;36409;52.168;20.878;2023-05-11T03:09:50;101037.98;;;6.17;44.31
50484;BME280;36409;52.168;20.878;2023-05-11T03:12:19;101038.87;;;6.18;45.00
50484;BME280;36409;52.168;20.878;2023-05-11T03:14:50;101041.45;;;6.18;45.04
50484;BME280;36409;52.168;20.878;2023-05-11T03:17:20;101046.66;;;6.20;45.26
50484;BME280;36409;52.168;20.878;2023-05-11T03:19:50;101044.92;;;6.20;45.05
50484;BME280;36409;52.168;20.878;2023-05-11T03:22:20;101045.82;;;6.22;44.93
50484;BME280;36409;52.168;20.878;2023-05-11T03:24:51;101042.37;;;6.22;45.34
50484;BME280;36409;52.168;20.878;2023-05-11T03:27:21;101046.70;;;6.23;45.10
50484;BME280;36409;52.168;20.878;2023-05-11T03:29:52;101045.82;;;6.22;45.02
50484;BME280;36409;52.168;20.878;2023-05-11T03:32:22;101049.30;;;6.23;44.81
50484;BME280;36409;52.168;20.878;2023-05-11T03:34:52;101057.94;;;6.23;45.44
50484;BME280;36409;52.168;20.878;2023-05-11T03:37:21;101051.91;;;6.24;44.84
50484;BME280;36409;52.168;20.878;2023-05-11T03:39:56;101058.00;;;6.28;45.28
50484;BME280;36409;52.168;20.878;2023-05-11T03:42:26;101062.38;;;6.30;44.94
50484;BME280;36409;52.168;20.878;2023-05-11T03:44:57;101058.97;;;6.36;45.33
50484;BME280;36409;52.168;20.878;2023-05-11T03:47:27;101062.52;;;6.41;45.02
50484;BME280;36409;52.168;20.878;2023-05-11T03:49:57;101060.83;;;6.45;45.91
50484;BME280;36409;52.168;20.878;2023-05-11T03:52:30;101065.22;;;6.49;45.63
50484;BME280;36409;52.168;20.878;2023-05-11T03:55:01;101068.78;;;6.56;45.60
50484;BME280;36409;52.168;20.878;2023-05-11T03:57:31;101072.33;;;6.62;45.40
50484;BME280;36409;52.168;20.878;2023-05-11T04:00:02;101067.25;;;6.72;45.70
50484;BME280;36409;52.168;20.878;2023-05-11T04:02:33;101068.21;;;6.80;45.56
50484;BME280;36409;52.168;20.878;2023-05-11T04:05:07;101074.41;;;6.91;46.02
50484;BME280;36409;52.168;20.878;2023-05-11T04:07:37;101076.53;;;7.25;46.12
50484;BME280;36409;52.168;20.878;2023-05-11T04:10:08;101070.73;;;8.71;44.92
50484;BME280;36409;52.168;20.878;2023-05-11T04:12:37;101064.03;;;10.07;44.98
50484;BME280;36409;52.168;20.878;2023-05-11T04:15:08;101060.72;;;11.72;43.83
50484;BME280;36409;52.168;20.878;2023-05-11T04:17:37;101051.38;;;13.73;43.22
50484;BME280;36409;52.168;20.878;2023-05-11T04:20:08;101050.70;;;15.42;42.31
50484;BME280;36409;52.168;20.878;2023-05-11T04:22:37;101052.05;;;16.91;41.46
50484;BME280;36409;52.168;20.878;2023-05-11T04:25:07;101047.61;;;18.05;39.82
50484;BME280;36409;52.168;20.878;2023-05-11T04:27:40;101044.63;;;19.11;38.66
50484;BME280;36409;52.168;20.878;2023-05-11T04:30:10;101047.80;;;20.27;37.66
50484;BME280;36409;52.168;20.878;2023-05-11T04:32:39;101036.36;;;21.41;37.39
50484;BME280;36409;52.168;20.878;2023-05-11T04:35:10;101042.34;;;21.64;36.80
50484;BME280;36409;52.168;20.878;2023-05-11T04:37:41;101046.97;;;20.46;36.88
50484;BME280;36409;52.168;20.878;2023-05-11T04:40:12;101058.16;;;19.25;36.52
50484;BME280;36409;52.168;20.878;2023-05-11T04:42:42;101046.47;;;19.09;35.86
50484;BME280;36409;52.168;20.878;2023-05-11T04:45:15;101055.84;;;20.65;34.81
50484;BME280;36409;52.168;20.878;2023-05-11T04:47:45;101048.30;;;21.87;34.02
50484;BME280;36409;52.168;20.878;2023-05-11T04:50:14;101046.64;;;23.03;33.52
50484;BME280;36409;52.168;20.878;2023-05-11T04:52:43;101050.06;;;24.14;32.34
50484;BME280;36409;52.168;20.878;2023-05-11T04:55:12;101049.48;;;25.23;32.27
50484;BME280;36409;52.168;20.878;2023-05-11T04:57:41;101052.34;;;26.28;30.84
50484;BME280;36409;52.168;20.878;2023-05-11T05:00:12;101058.47;;;26.93;30.18
50484;BME280;36409;52.168;20.878;2023-05-11T05:02:41;101047.26;;;27.61;29.43
50484;BME280;36409;52.168;20.878;2023-05-11T05:05:12;101053.77;;;28.28;28.64
50484;BME280;36409;52.168;20.878;2023-05-11T05:07:41;101056.20;;;28.99;28.16
50484;BME280;36409;52.168;20.878;2023-05-11T05:10:11;101061.42;;;29.56;27.65
50484;BME280;36409;52.168;20.878;2023-05-11T05:12:40;101058.70;;;30.10;26.90
50484;BME280;36409;52.168;20.878;2023-05-11T05:15:10;101057.59;;;30.74;26.51
50484;BME280;36409;52.168;20.878;2023-05-11T05:17:39;101061.13;;;31.45;26.12
50484;BME280;36409;52.168;20.878;2023-05-11T05:20:10;101067.92;;;31.98;25.33
50484;BME280;36409;52.168;20.878;2023-05-11T05:22:39;101064.34;;;32.08;25.05
50484;BME280;36409;52.168;20.878;2023-05-11T05:25:09;101063.79;;;32.04;24.07
50484;BME280;36409;52.168;20.878;2023-05-11T05:27:41;101063.23;;;32.00;23.64
50484;BME280;36409;52.168;20.878;2023-05-11T05:30:16;101072.45;;;31.19;23.18
50484;BME280;36409;52.168;20.878;2023-05-11T05:32:46;101077.20;;;28.94;23.46
50484;BME280;36409;52.168;20.878;2023-05-11T05:35:16;101079.69;;;26.57;24.38
50484;BME280;36409;52.168;20.878;2023-05-11T05:37:47;101078.40;;;26.63;24.36
50484;BME280;36409;52.168;20.878;2023-05-11T05:40:17;101078.23;;;27.40;23.68
50484;BME280;36409;52.168;20.878;2023-05-11T05:42:51;101078.41;;;27.74;23.76
50484;BME280;36409;52.168;20.878;2023-05-11T05:45:26;101089.31;;;28.77;23.07
50484;BME280;36409;52.168;20.878;2023-05-11T05:47:57;101084.72;;;29.34;22.72
50484;BME280;36409;52.168;20.878;2023-05-11T05:50:30;101078.25;;;30.33;22.34
50484;BME280;36409;52.168;20.878;2023-05-11T05:53:03;101081.92;;;31.04;22.05
50484;BME280;36409;52.168;20.878;2023-05-11T05:55:33;101076.39;;;30.33;22.34
50484;BME280;36409;52.168;20.878;2023-05-11T05:58:04;101082.88;;;30.00;22.01
50484;BME280;36409;52.168;20.878;2023-05-11T06:00:34;101082.27;;;30.48;22.10
50484;BME280;36409;52.168;20.878;2023-05-11T06:03:07;101077.78;;;29.85;21.65
50484;BME280;36409;52.168;20.878;2023-05-11T06:05:36;101077.47;;;28.68;22.16
50484;BME280;36409;52.168;20.878;2023-05-11T06:08:05;101082.80;;;27.51;21.75
50484;BME280;36409;52.168;20.878;2023-05-11T06:10:39;101084.08;;;26.58;23.02
50484;BME280;36409;52.168;20.878;2023-05-11T06:13:10;101088.33;;;26.09;23.01
50484;BME280;36409;52.168;20.878;2023-05-11T06:15:42;101084.50;;;25.18;22.86
50484;BME280;36409;52.168;20.878;2023-05-11T06:18:27;101090.69;;;25.33;22.76
50484;BME280;36409;52.168;20.878;2023-05-11T06:20:57;101083.82;;;25.97;22.71
50484;BME280;36409;52.168;20.878;2023-05-11T06:23:28;101094.84;;;24.95;23.48
50484;BME280;36409;52.168;20.878;2023-05-11T06:25:59;101094.81;;;23.93;24.16
50484;BME280;36409;52.168;20.878;2023-05-11T06:28:32;101093.06;;;22.81;23.80
50484;BME280;36409;52.168;20.878;2023-05-11T06:42:24;101097.87;;;18.52;26.30
50484;BME280;36409;52.168;20.878;2023-05-11T06:45:08;101099.23;;;18.14;26.66
50484;BME280;36409;52.168;20.878;2023-05-11T06:47:44;101100.05;;;17.89;26.59
50484;BME280;36409;52.168;20.878;2023-05-11T06:50:17;101099.94;;;17.65;27.02
50484;BME280;36409;52.168;20.878;2023-05-11T06:52:51;101105.45;;;17.57;27.04
50484;BME280;36409;52.168;20.878;2023-05-11T06:55:24;101103.58;;;17.61;27.69
50484;BME280;36409;52.168;20.878;2023-05-11T06:57:59;101107.86;;;17.37;27.82
50484;BME280;36409;52.168;20.878;2023-05-11T07:00:31;101109.28;;;17.19;27.71
50484;BME280;36409;52.168;20.878;2023-05-11T07:03:07;101112.14;;;17.11;27.87
50484;BME280;36409;52.168;20.878;2023-05-11T07:05:39;101116.71;;;17.34;27.91
50484;BME280;36409;52.168;20.878;2023-05-11T07:08:11;101106.97;;;17.65;27.69
50484;BME280;36409;52.168;20.878;2023-05-11T07:10:44;101108.03;;;18.14;27.13
50484;BME280;36409;52.168;20.878;2023-05-11T07:13:16;101095.91;;;18.34;27.27
50484;BME280;36409;52.168;20.878;2023-05-11T07:15:48;101093.54;;;18.51;27.62
50484;BME280;36409;52.168;20.878;2023-05-11T07:18:21;101094.93;;;18.62;27.58
50484;BME280;36409;52.168;20.878;2023-05-11T07:20:53;101091.06;;;18.71;27.45
50484;BME280;36409;52.168;20.878;2023-05-11T07:23:25;101093.54;;;18.51;27.70
50484;BME280;36409;52.168;20.878;2023-05-11T07:25:58;101095.33;;;18.75;27.34
50484;BME280;36409;52.168;20.878;2023-05-11T07:28:31;101091.47;;;18.60;27.30
50484;BME280;36409;52.168;20.878;2023-05-11T07:31:03;101093.20;;;18.35;27.86
50484;BME280;36409;52.168;20.878;2023-05-11T07:33:39;101089.60;;;18.38;27.65
50484;BME280;36409;52.168;20.878;2023-05-11T07:36:13;101096.30;;;18.23;27.56
50484;BME280;36409;52.168;20.878;2023-05-11T07:38:46;101093.09;;;18.13;27.82
50484;BME280;36409;52.168;20.878;2023-05-11T07:41:18;101089.48;;;17.89;27.69
50484;BME280;36409;52.168;20.878;2023-05-11T07:43:52;101088.62;;;17.62;27.51
50484;BME280;36409;52.168;20.878;2023-05-11T07:46:25;101088.19;;;17.47;27.70
50484;BME280;36409;52.168;20.878;2023-05-11T07:48:57;101085.41;;;17.52;27.30
50484;BME280;36409;52.168;20.878;2023-05-11T07:51:48;101087.95;;;17.55;27.73
50484;BME280;36409;52.168;20.878;2023-05-11T07:54:22;101098.30;;;17.61;27.58
50484;BME280;36409;52.168;20.878;2023-05-11T07:56:55;101087.98;;;17.53;27.69
50484;BME280;36409;52.168;20.878;2023-05-11T07:59:27;101091.44;;;17.55;27.67
50484;BME280;36409;52.168;20.878;2023-05-11T08:01:59;101096.72;;;17.55;27.98
50484;BME280;36409;52.168;20.878;2023-05-11T08:04:32;101095.87;;;17.55;28.14
50484;BME280;36409;52.168;20.878;2023-05-11T08:07:05;101086.40;;;17.48;27.80
50484;BME280;36409;52.168;20.878;2023-05-11T08:09:38;101088.28;;;17.44;28.14
50484;BME280;36409;52.168;20.878;2023-05-11T08:12:10;101088.04;;;17.52;27.97
50484;BME280;36409;52.168;20.878;2023-05-11T08:14:43;101089.70;;;17.54;27.69
50484;BME280;36409;52.168;20.878;2023-05-11T08:17:15;101080.13;;;17.52;27.63
50484;BME280;36409;52.168;20.878;2023-05-11T08:19:47;101085.31;;;17.55;27.95
50484;BME280;36409;52.168;20.878;2023-05-11T08:22:21;101086.02;;;17.60;27.30
50484;BME280;36409;52.168;20.878;2023-05-11T08:24:53;101081.40;;;17.67;27.33
50484;BME280;36409;52.168;20.878;2023-05-11T08:27:26;101079.42;;;17.73;27.83
50484;BME280;36409;52.168;20.878;2023-05-11T08:29:59;101080.09;;;17.80;27.74
50484;BME280;36409;52.168;20.878;2023-05-11T08:32:31;101079.02;;;17.86;27.83
50484;BME280;36409;52.168;20.878;2023-05-11T08:35:24;101072.67;;;17.91;28.19
50484;BME280;36409;52.168;20.878;2023-05-11T08:37:56;101072.22;;;18.05;27.39
50484;BME280;36409;52.168;20.878;2023-05-11T08:40:31;101069.06;;;18.21;27.73
50484;BME280;36409;52.168;20.878;2023-05-11T08:43:05;101070.23;;;18.37;27.54
50484;BME280;36409;52.168;20.878;2023-05-11T08:45:38;101069.05;;;18.46;27.88
50484;BME280;36409;52.168;20.878;2023-05-11T08:48:12;101071.88;;;18.65;27.62
50484;BME280;36409;52.168;20.878;2023-05-11T08:50:48;101066.14;;;18.78;27.11
50484;BME280;36409;52.168;20.878;2023-05-11T08:53:21;101071.45;;;19.02;27.47
50484;BME280;36409;52.168;20.878;2023-05-11T08:55:55;101073.81;;;19.32;27.39
50484;BME280;36409;52.168;20.878;2023-05-11T08:58:29;101062.70;;;19.66;27.32
50484;BME280;36409;52.168;20.878;2023-05-11T09:01:02;101058.46;;;20.05;27.10
50484;BME280;36409;52.168;20.878;2023-05-11T09:03:41;101069.77;;;20.50;27.40
50484;BME280;36409;52.168;20.878;2023-05-11T09:06:17;101057.53;;;20.87;26.81
50484;BME280;36409;52.168;20.878;2023-05-11T09:08:50;101073.41;;;21.25;26.42
50484;BME280;36409;52.168;20.878;2023-05-11T09:11:22;101071.05;;;21.38;26.04
50484;BME280;36409;52.168;20.878;2023-05-11T09:13:55;101067.94;;;21.48;26.24
50484;BME280;36409;52.168;20.878;2023-05-11T09:16:28;101063.13;;;21.73;26.08
50484;BME280;36409;52.168;20.878;2023-05-11T09:19:07;101061.05;;;21.98;26.50
50484;BME280;36409;52.168;20.878;2023-05-11T09:21:44;101063.70;;;21.98;25.87
50484;BME280;36409;52.168;20.878;2023-05-11T09:24:20;101050.72;;;21.91;26.17
50484;BME280;36409;52.168;20.878;2023-05-11T09:29:37;101060.05;;;22.51;25.69
50484;BME280;36409;52.168;20.878;2023-05-11T09:32:09;101051.34;;;22.81;26.06
50484;BME280;36409;52.168;20.878;2023-05-11T09:34:41;101047.58;;;23.02;25.77
50484;BME280;36409;52.168;20.878;2023-05-11T09:37:17;101049.67;;;23.28;25.35
50484;BME280;36409;52.168;20.878;2023-05-11T09:39:54;101061.06;;;23.31;25.40
50484;BME280;36409;52.168;20.878;2023-05-11T09:42:30;101054.47;;;23.38;25.24
50484;BME280;36409;52.168;20.878;2023-05-11T09:45:09;101056.01;;;23.26;24.64
50484;BME280;36409;52.168;20.878;2023-05-11T09:47:41;101041.48;;;23.32;25.01
50484;BME280;36409;52.168;20.878;2023-05-11T09:50:20;101045.50;;;23.55;25.23
50484;BME280;36409;52.168;20.878;2023-05-11T09:52:56;101035.14;;;23.65;24.60
50484;BME280;36409;52.168;20.878;2023-05-11T09:55:28;101048.84;;;23.89;24.52
50484;BME280;36409;52.168;20.878;2023-05-11T09:58:01;101044.51;;;23.72;24.13
50484;BME280;36409;52.168;20.878;2023-05-11T10:00:36;101037.56;;;23.69;24.38
50484;BME280;36409;52.168;20.878;2023-05-11T10:03:21;101036.45;;;23.88;24.39
50484;BME280;36409;52.168;20.878;2023-05-11T10:05:59;101030.91;;;24.07;24.11
50484;BME280;36409;52.168;20.878;2023-05-11T10:08:42;101022.63;;;24.12;24.23
50484;BME280;36409;52.168;20.878;2023-05-11T10:11:14;101030.44;;;24.29;24.54
50484;BME280;36409;52.168;20.878;2023-05-11T10:13:47;101030.05;;;24.50;24.00
50484;BME280;36409;52.168;20.878;2023-05-11T10:16:20;101017.19;;;24.57;23.86
50484;BME280;36409;52.168;20.878;2023-05-11T10:18:53;101016.44;;;24.69;23.59
50484;BME280;36409;52.168;20.878;2023-05-11T10:21:28;101020.80;;;24.56;23.28
50484;BME280;36409;52.168;20.878;2023-05-11T10:24:03;101022.16;;;24.48;23.26
50484;BME280;36409;52.168;20.878;2023-05-11T10:26:37;101014.33;;;24.45;23.45
50484;BME280;36409;52.168;20.878;2023-05-11T10:29:10;101025.30;;;24.55;23.39
50484;BME280;36409;52.168;20.878;2023-05-11T10:31:43;101022.63;;;24.55;23.26
50484;BME280;36409;52.168;20.878;2023-05-11T10:34:18;101017.66;;;24.49;23.17
50484;BME280;36409;52.168;20.878;2023-05-11T10:36:53;101017.77;;;24.33;23.35
50484;BME280;36409;52.168;20.878;2023-05-11T10:39:25;101009.21;;;24.28;23.68
50484;BME280;36409;52.168;20.878;2023-05-11T10:42:10;101005.97;;;24.37;23.79
50484;BME280;36409;52.168;20.878;2023-05-11T10:45:01;101002.36;;;24.09;23.18
50484;BME280;36409;52.168;20.878;2023-05-11T10:51:03;100997.88;;;24.24;23.54
50484;BME280;36409;52.168;20.878;2023-05-11T10:53:56;101005.97;;;24.37;23.40
50484;BME280;36409;52.168;20.878;2023-05-11T10:56:41;101003.30;;;24.37;23.51
50484;BME280;36409;52.168;20.878;2023-05-11T10:59:48;100992.63;;;24.37;23.35
50484;BME280;36409;52.168;20.878;2023-05-11T11:02:24;100987.00;;;24.42;23.32
50484;BME280;36409;52.168;20.878;2023-05-11T11:05:04;101006.14;;;24.34;23.65
50484;BME280;36409;52.168;20.878;2023-05-11T11:08:00;100988.35;;;24.34;23.28
50484;BME280;36409;52.168;20.878;2023-05-11T11:10:36;100986.74;;;24.32;23.42
50484;BME280;36409;52.168;20.878;2023-05-11T11:13:10;100986.92;;;24.29;23.25
50484;BME280;36409;52.168;20.878;2023-05-11T11:16:10;100981.41;;;24.32;23.16
50484;BME280;36409;52.168;20.878;2023-05-11T11:18:46;100992.44;;;24.26;23.82
50484;BME280;36409;52.168;20.878;2023-05-11T11:21:39;100987.77;;;24.29;23.77
50484;BME280;36409;52.168;20.878;2023-05-11T11:24:45;100994.34;;;24.24;23.24
50484;BME280;36409;52.168;20.878;2023-05-11T11:27:17;100990.17;;;24.19;23.48
50484;BME280;36409;52.168;20.878;2023-05-11T11:30:16;100983.70;;;24.09;23.15
50484;BME280;36409;52.168;20.878;2023-05-11T11:32:50;100980.67;;;23.85;23.61
50484;BME280;36409;52.168;20.878;2023-05-11T11:35:47;100986.17;;;23.82;23.13
50484;BME280;36409;52.168;20.878;2023-05-11T11:38:20;100986.79;;;23.56;22.84
50484;BME280;36409;52.168;20.878;2023-05-11T11:40:52;100992.13;;;23.56;23.21
50484;BME280;36409;52.168;20.878;2023-05-11T11:43:27;100990.23;;;23.58;23.30
50484;BME280;36409;52.168;20.878;2023-05-11T11:46:00;100971.02;;;23.68;23.22
50484;BME280;36409;52.168;20.878;2023-05-11T11:48:37;100993.15;;;23.84;23.86
50484;BME280;36409;52.168;20.878;2023-05-11T11:51:12;100991.49;;;23.98;23.38
50484;BME280;36409;52.168;20.878;2023-05-11T11:56:43;100986.90;;;24.00;23.79
50484;BME280;36409;52.168;20.878;2023-05-11T11:59:16;100979.84;;;23.99;23.86
50484;BME280;36409;52.168;20.878;2023-05-11T12:01:51;100985.18;;;23.99;23.76
50484;BME280;36409;52.168;20.878;2023-05-11T12:04:42;100983.59;;;24.11;23.59
50484;BME280;36409;52.168;20.878;2023-05-11T12:07:19;100986.54;;;24.06;23.60
50484;BME280;36409;52.168;20.878;2023-05-11T12:09:53;100983.48;;;24.12;23.79
50484;BME280;36409;52.168;20.878;2023-05-11T12:12:25;100977.30;;;24.12;23.22
50484;BME280;36409;52.168;20.878;2023-05-11T12:14:58;100982.63;;;23.97;23.63
50484;BME280;36409;52.168;20.878;2023-05-11T12:17:36;100982.84;;;23.78;23.44
50484;BME280;36409;52.168;20.878;2023-05-11T12:20:14;100984.62;;;23.63;23.24
50484;BME280;36409;52.168;20.878;2023-05-11T12:22:47;100978.03;;;23.54;23.77
50484;BME280;36409;52.168;20.878;2023-05-11T12:25:20;100979.02;;;23.37;23.02
50484;BME280;36409;52.168;20.878;2023-05-11T12:27:52;100971.31;;;23.17;23.04
50484;BME280;36409;52.168;20.878;2023-05-11T12:30:29;100973.47;;;23.10;23.39
50484;BME280;36409;52.168;20.878;2023-05-11T12:33:02;100973.00;;;23.19;23.33
50484;BME280;36409;52.168;20.878;2023-05-11T12:35:35;100969.19;;;23.23;23.83
50484;BME280;36409;52.168;20.878;2023-05-11T12:38:11;100968.14;;;23.26;23.40
50484;BME280;36409;52.168;20.878;2023-05-11T12:40:48;100972.89;;;23.05;23.36
50484;BME280;36409;52.168;20.878;2023-05-11T12:43:22;100961.06;;;22.94;23.46
50484;BME280;36409;52.168;20.878;2023-05-11T12:45:54;100964.98;;;22.87;23.53
50484;BME280;36409;52.168;20.878;2023-05-11T12:48:26;100961.83;;;22.96;23.56
50484;BME280;36409;52.168;20.878;2023-05-11T12:50:59;100957.09;;;23.02;23.48
50484;BME280;36409;52.168;20.878;2023-05-11T12:53:35;100936.91;;;22.97;23.74
50484;BME280;36409;52.168;20.878;2023-05-11T12:56:08;100950.14;;;22.99;23.51
50484;BME280;36409;52.168;20.878;2023-05-11T12:58:41;100943.70;;;22.87;23.52
50484;BME280;36409;52.168;20.878;2023-05-11T13:01:13;100946.80;;;22.95;24.26
50484;BME280;36409;52.168;20.878;2023-05-11T13:03:46;100937.27;;;22.91;23.65
50484;BME280;36409;52.168;20.878;2023-05-11T13:06:17;100938.74;;;22.81;23.58
50484;BME280;36409;52.168;20.878;2023-05-11T13:08:50;100946.11;;;22.76;24.25
50484;BME280;36409;52.168;20.878;2023-05-11T13:11:25;100949.91;;;22.72;23.78
50484;BME280;36409;52.168;20.878;2023-05-11T13:13:58;100944.14;;;22.63;24.16
50484;BME280;36409;52.168;20.878;2023-05-11T13:16:31;100942.09;;;22.68;24.41
50484;BME280;36409;52.168;20.878;2023-05-11T13:19:06;100935.67;;;22.73;23.94
50484;BME280;36409;52.168;20.878;2023-05-11T13:21:39;100944.34;;;22.60;24.45
50484;BME280;36409;52.168;20.878;2023-05-11T13:24:20;100938.75;;;22.65;24.54
50484;BME280;36409;52.168;20.878;2023-05-11T13:26:52;100932.48;;;22.82;24.21
50484;BME280;36409;52.168;20.878;2023-05-11T13:29:26;100929.13;;;22.94;24.65
50484;BME280;36409;52.168;20.878;2023-05-11T13:31:58;100923.53;;;22.99;24.70
50484;BME280;36409;52.168;20.878;2023-05-11T13:34:31;100932.31;;;22.85;24.33
50484;BME280;36409;52.168;20.878;2023-05-11T13:37:03;100929.64;;;22.69;24.51
50484;BME280;36409;52.168;20.878;2023-05-11T13:39:36;100928.37;;;22.60;24.50
50484;BME280;36409;52.168;20.878;2023-05-11T13:42:09;100928.54;;;22.57;24.12
50484;BME280;36409;52.168;20.878;2023-05-11T13:44:41;100926.14;;;22.52;24.23
50484;BME280;36409;52.168;20.878;2023-05-11T13:47:13;100929.73;;;22.51;24.72
50484;BME280;36409;52.168;20.878;2023-05-11T13:49:46;100929.64;;;22.53;24.08
50484;BME280;36409;52.168;20.878;2023-05-11T13:52:19;100927.17;;;22.50;24.12
50484;BME280;36409;52.168;20.878;2023-05-11T13:54:51;100922.86;;;22.47;24.50
50484;BME280;36409;52.168;20.878;2023-05-11T13:57:24;100922.96;;;22.46;24.59
50484;BME280;36409;52.168;20.878;2023-05-11T13:59:57;100920.20;;;22.47;24.62
50484;BME280;36409;52.168;20.878;2023-05-11T14:02:29;100923.28;;;22.40;24.52
50484;BME280;36409;52.168;20.878;2023-05-11T14:05:02;100921.72;;;22.35;24.64
50484;BME280;36409;52.168;20.878;2023-05-11T14:07:35;100915.04;;;22.28;24.34
50484;BME280;36409;52.168;20.878;2023-05-11T14:10:18;100917.76;;;22.27;24.87
50484;BME280;36409;52.168;20.878;2023-05-11T14:12:50;100918.27;;;22.17;24.94
50484;BME280;36409;52.168;20.878;2023-05-11T14:15:23;100919.18;;;22.00;24.79
50484;BME280;36409;52.168;20.878;2023-05-11T14:17:55;100911.55;;;21.94;24.47
50484;BME280;36409;52.168;20.878;2023-05-11T14:20:28;100904.83;;;21.87;24.73
50484;BME280;36409;52.168;20.878;2023-05-11T14:23:00;100903.98;;;21.86;24.99
50484;BME280;36409;52.168;20.878;2023-05-11T14:25:32;100899.52;;;21.87;24.98
50484;BME280;36409;52.168;20.878;2023-05-11T14:28:04;100903.05;;;21.87;24.74
50484;BME280;36409;52.168;20.878;2023-05-11T14:30:38;100900.55;;;21.84;25.14
50484;BME280;36409;52.168;20.878;2023-05-11T14:33:10;100900.45;;;21.86;24.99
50484;BME280;36409;52.168;20.878;2023-05-11T14:35:42;100903.83;;;21.89;25.51
50484;BME280;36409;52.168;20.878;2023-05-11T14:38:15;100901.08;;;21.91;25.27